createdAt,value
2022-11-09T00:01:33.614Z,8.70
2022-11-09T00:04:21.137Z,8.10
2022-11-09T00:07:08.617Z,8.10
2022-11-09T00:09:57.631Z,8.10
2022-11-09T00:12:45.227Z,8.10
2022-11-09T00:15:32.746Z,8.10
2022-11-09T00:18:20.196Z,8.10
2022-11-09T00:21:08.119Z,8.20
2022-11-09T00:23:56.702Z,8.10
2022-11-09T00:26:45.973Z,8.10
2022-11-09T00:29:33.274Z,8.10
2022-11-09T00:32:25.242Z,8.10
2022-11-09T00:35:17.544Z,8.10
2022-11-09T00:38:05.105Z,8.00
2022-11-09T00:40:52.420Z,8.00
2022-11-09T00:43:41.357Z,8.10
2022-11-09T00:46:29.211Z,8.10
2022-11-09T00:49:16.922Z,8.00
2022-11-09T00:52:04.662Z,8.10
2022-11-09T00:54:52.615Z,8.10
2022-11-09T00:57:39.861Z,8.10
2022-11-09T01:00:29.029Z,8.10
2022-11-09T01:03:17.116Z,8.10
2022-11-09T01:06:04.735Z,8.10
2022-11-09T01:08:52.538Z,8.10
2022-11-09T01:11:40.366Z,8.10
2022-11-09T01:14:27.739Z,8.10
2022-11-09T01:17:16.486Z,8.10
2022-11-09T01:20:03.920Z,8.00
2022-11-09T01:22:51.087Z,8.00
2022-11-09T01:25:39.109Z,8.00
2022-11-09T01:28:26.769Z,7.90
2022-11-09T01:31:16.708Z,7.90
2022-11-09T01:34:05.529Z,7.90
2022-11-09T01:36:54.093Z,7.80
2022-11-09T01:39:43.219Z,7.80
2022-11-09T01:42:31.448Z,7.70
2022-11-09T01:45:25.777Z,7.70
2022-11-09T01:48:17.872Z,7.70
2022-11-09T01:51:12.186Z,7.60
2022-11-09T01:54:03.099Z,7.60
2022-11-09T01:56:54.944Z,7.50
2022-11-09T01:59:46.900Z,7.50
2022-11-09T02:02:34.421Z,7.50
2022-11-09T02:05:26.085Z,7.40
2022-11-09T02:08:19.160Z,7.40
2022-11-09T02:11:10.972Z,7.40
2022-11-09T02:14:02.005Z,7.30
2022-11-09T02:16:49.712Z,7.30
2022-11-09T02:19:36.831Z,7.30
2022-11-09T02:22:26.035Z,7.20
2022-11-09T02:25:16.182Z,7.20
2022-11-09T02:28:03.736Z,7.10
2022-11-09T02:30:54.723Z,7.10
2022-11-09T02:33:45.843Z,7.10
2022-11-09T02:36:33.226Z,7.10
2022-11-09T02:39:26.668Z,7.10
2022-11-09T02:42:21.258Z,7.00
2022-11-09T02:45:12.534Z,7.00
2022-11-09T02:48:02.086Z,7.00
2022-11-09T02:50:49.733Z,7.00
2022-11-09T02:53:37.355Z,6.90
2022-11-09T02:56:26.418Z,6.90
2022-11-09T02:59:16.196Z,6.90
2022-11-09T03:02:03.911Z,6.90
2022-11-09T03:04:52.550Z,6.80
2022-11-09T03:07:41.131Z,6.80
2022-11-09T03:10:28.459Z,6.80
2022-11-09T03:13:18.730Z,6.80
2022-11-09T03:16:08.575Z,6.80
2022-11-09T03:18:59.767Z,6.80
2022-11-09T03:21:48.417Z,6.80
2022-11-09T03:24:35.880Z,6.70
2022-11-09T03:27:23.190Z,6.80
2022-11-09T03:30:12.856Z,6.80
2022-11-09T03:33:02.093Z,6.80
2022-11-09T03:35:49.629Z,6.80
2022-11-09T03:38:39.089Z,6.80
2022-11-09T03:41:26.501Z,6.80
2022-11-09T03:44:13.915Z,6.90
2022-11-09T03:47:02.588Z,6.80
2022-11-09T03:49:49.881Z,6.90
2022-11-09T03:52:38.229Z,6.90
2022-11-09T03:55:26.451Z,7.00
2022-11-09T03:58:13.944Z,7.00
2022-11-09T04:01:01.193Z,7.10
2022-11-09T04:03:49.764Z,7.20
2022-11-09T04:06:37.429Z,7.20
2022-11-09T04:09:25.100Z,7.30
2022-11-09T04:12:12.863Z,7.40
2022-11-09T04:15:00.111Z,7.40
2022-11-09T04:17:56.422Z,7.50
2022-11-09T04:20:45.211Z,7.60
2022-11-09T04:23:32.305Z,7.60
2022-11-09T04:26:19.473Z,7.70
2022-11-09T04:29:06.709Z,7.80
2022-11-09T04:31:54.162Z,7.80
2022-11-09T04:34:42.517Z,7.80
2022-11-09T04:37:31.398Z,7.90
2022-11-09T04:40:18.724Z,7.90
2022-11-09T04:43:08.172Z,8.00
2022-11-09T04:45:55.884Z,8.10
2022-11-09T04:48:44.756Z,8.10
2022-11-09T04:51:31.835Z,8.20
2022-11-09T04:54:20.497Z,8.30
2022-11-09T04:57:07.828Z,8.30
2022-11-09T04:59:55.523Z,8.40
2022-11-09T05:02:43.031Z,8.40
2022-11-09T05:05:30.761Z,8.40
2022-11-09T05:08:17.956Z,8.40
2022-11-09T05:11:07.240Z,8.40
2022-11-09T05:13:55.168Z,8.40
2022-11-09T05:16:42.690Z,8.40
2022-11-09T05:19:30.033Z,8.40
2022-11-09T05:22:31.345Z,8.40
2022-11-09T05:25:19.041Z,8.40
2022-11-09T05:28:09.563Z,8.40
2022-11-09T05:30:57.027Z,8.30
2022-11-09T05:33:44.342Z,8.30
2022-11-09T05:36:33.723Z,8.30
2022-11-09T05:39:20.877Z,8.30
2022-11-09T05:42:10.623Z,8.20
2022-11-09T05:45:21.050Z,8.20
2022-11-09T05:48:07.305Z,8.20
2022-11-09T05:50:54.847Z,8.20
2022-11-09T05:53:46.991Z,8.20
2022-11-09T05:56:34.526Z,8.20
2022-11-09T05:59:21.939Z,8.20
2022-11-09T06:02:10.571Z,8.20
2022-11-09T06:04:58.242Z,8.20
2022-11-09T06:07:45.902Z,8.20
2022-11-09T06:10:33.457Z,8.20
2022-11-09T06:13:21.415Z,8.20
2022-11-09T06:16:11.094Z,8.20
2022-11-09T06:18:59.734Z,8.20
2022-11-09T06:21:47.144Z,8.20
2022-11-09T06:24:35.287Z,8.20
2022-11-09T06:27:23.417Z,8.20
2022-11-09T06:30:12.759Z,8.20
2022-11-09T06:33:01.624Z,8.20
2022-11-09T06:35:56.069Z,8.10
2022-11-09T06:38:44.816Z,8.10
2022-11-09T06:41:32.930Z,8.10
2022-11-09T06:44:20.945Z,8.20
2022-11-09T06:47:08.987Z,8.20
2022-11-09T06:49:56.858Z,8.20
2022-11-09T06:52:46.419Z,8.30
2022-11-09T06:55:35.817Z,8.30
2022-11-09T06:58:24.285Z,8.40
2022-11-09T07:01:14.410Z,8.40
2022-11-09T07:04:02.723Z,8.50
2022-11-09T07:06:50.526Z,8.50
2022-11-09T07:09:39.921Z,8.60
2022-11-09T07:12:28.199Z,8.70
2022-11-09T07:15:16.411Z,8.70
2022-11-09T07:18:06.123Z,8.80
2022-11-09T07:20:53.928Z,8.80
2022-11-09T07:23:41.857Z,8.80
2022-11-09T07:26:31.150Z,8.90
2022-11-09T07:29:21.910Z,8.90
2022-11-09T07:32:10.308Z,8.90
2022-11-09T07:34:58.253Z,9.00
2022-11-09T07:37:46.159Z,9.00
2022-11-09T07:40:34.084Z,9.10
2022-11-09T07:43:23.949Z,9.10
2022-11-09T07:46:13.767Z,9.10
2022-11-09T07:49:01.503Z,9.20
2022-11-09T07:51:49.353Z,9.20
2022-11-09T07:54:37.852Z,9.20
2022-11-09T07:57:25.598Z,9.20
2022-11-09T08:00:21.086Z,9.30
2022-11-09T08:03:11.926Z,9.30
2022-11-09T08:06:02.486Z,9.30
2022-11-09T08:08:50.544Z,9.40
2022-11-09T08:11:38.088Z,9.40
2022-11-09T08:14:26.438Z,9.40
2022-11-09T08:17:15.940Z,9.50
2022-11-09T08:20:04.458Z,9.60
2022-11-09T08:22:52.200Z,9.60
2022-11-09T08:25:40.057Z,9.70
2022-11-09T08:28:27.877Z,9.80
2022-11-09T08:31:15.737Z,10.00
2022-11-09T08:34:06.994Z,10.10
2022-11-09T08:36:54.898Z,10.20
2022-11-09T08:39:43.401Z,10.40
2022-11-09T08:42:31.710Z,10.60
2022-11-09T08:45:22.738Z,10.70
2022-11-09T08:48:12.510Z,10.90
2022-11-09T08:51:02.056Z,11.10
2022-11-09T08:53:49.787Z,11.20
2022-11-09T08:56:38.096Z,11.30
2022-11-09T08:59:26.157Z,11.40
2022-11-09T09:02:15.337Z,11.50
2022-11-09T09:05:03.326Z,11.60
2022-11-09T09:07:52.841Z,11.70
2022-11-09T09:10:41.142Z,11.80
2022-11-09T09:13:29.521Z,11.90
2022-11-09T09:16:18.182Z,12.00
2022-11-09T09:19:06.603Z,12.00
2022-11-09T09:21:54.744Z,12.10
2022-11-09T09:24:44.074Z,12.10
2022-11-09T09:27:31.989Z,12.20
2022-11-09T09:30:19.912Z,12.30
2022-11-09T09:33:07.968Z,12.40
2022-11-09T09:35:58.486Z,12.50
2022-11-09T09:38:46.764Z,12.60
2022-11-09T09:41:41.984Z,12.70
2022-11-09T09:44:35.043Z,12.90
2022-11-09T09:47:29.641Z,13.00
2022-11-09T09:50:23.332Z,13.10
2022-11-09T09:53:24.963Z,13.20
2022-11-09T09:56:20.518Z,13.30
2022-11-09T09:59:16.677Z,13.40
2022-11-09T10:02:04.609Z,13.50
2022-11-09T10:04:54.155Z,13.60
2022-11-09T10:07:52.768Z,13.70
2022-11-09T10:10:46.577Z,13.80
2022-11-09T10:13:47.018Z,13.80
2022-11-09T10:16:43.372Z,14.00
2022-11-09T10:19:45.217Z,14.00
2022-11-09T10:22:41.742Z,14.20
2022-11-09T10:25:57.653Z,14.20
2022-11-09T10:29:13.848Z,14.30
2022-11-09T10:31:55.656Z,14.40
2022-11-09T10:34:53.745Z,14.40
2022-11-09T10:37:43.481Z,14.50
2022-11-09T10:40:36.665Z,14.60
2022-11-09T10:43:44.483Z,14.60
2022-11-09T10:47:09.536Z,14.70
2022-11-09T10:50:26.495Z,14.80
2022-11-09T10:53:34.726Z,14.90
2022-11-09T10:57:05.418Z,15.10
2022-11-09T11:00:18.310Z,15.40
2022-11-09T11:03:26.555Z,15.70
2022-11-09T11:06:33.273Z,15.90
2022-11-09T11:09:43.213Z,16.20
2022-11-09T11:12:59.279Z,16.60
2022-11-09T11:16:18.462Z,16.90
2022-11-09T11:19:32.831Z,17.10
2022-11-09T11:22:39.814Z,17.40
2022-11-09T11:26:07.210Z,18.00
2022-11-09T11:29:13.193Z,17.90
2022-11-09T11:32:22.124Z,18.10
2022-11-09T11:35:36.125Z,18.30
2022-11-09T11:38:51.911Z,18.50
2022-11-09T11:42:12.696Z,18.60
2022-11-09T11:45:40.507Z,18.70
2022-11-09T11:49:06.276Z,18.70
2022-11-09T11:52:23.263Z,18.90
2022-11-09T11:55:51.939Z,18.90
2022-11-09T11:59:03.970Z,19.10
2022-11-09T12:02:29.223Z,19.20
2022-11-09T12:09:15.355Z,19.40
2022-11-09T12:12:21.513Z,19.40
2022-11-09T12:15:39.583Z,19.50
2022-11-09T12:19:00.067Z,19.60
2022-11-09T12:22:17.056Z,19.60
2022-11-09T12:25:31.748Z,19.70
2022-11-09T12:28:56.173Z,19.70
2022-11-09T12:32:13.807Z,19.70
2022-11-09T12:35:27.402Z,19.70
2022-11-09T12:38:38.405Z,19.70
2022-11-09T12:41:48.124Z,19.70
2022-11-09T12:45:03.620Z,19.80
2022-11-09T12:48:18.163Z,19.80
2022-11-09T12:51:25.554Z,19.70
2022-11-09T12:54:32.541Z,19.70
2022-11-09T12:57:40.475Z,19.70
2022-11-09T13:00:51.453Z,19.70
2022-11-09T13:04:00.408Z,19.70
2022-11-09T13:07:36.715Z,19.70
2022-11-09T13:10:43.379Z,19.70
2022-11-09T13:13:51.749Z,19.60
2022-11-09T13:17:00.527Z,19.60
2022-11-09T13:24:05.950Z,19.60
2022-11-09T13:27:39.642Z,19.50
2022-11-09T13:30:48.206Z,19.40
2022-11-09T13:34:29.864Z,19.40
2022-11-09T13:37:36.532Z,19.40
2022-11-09T13:40:47.468Z,19.40
2022-11-09T13:44:18.788Z,19.40
2022-11-09T13:47:32.954Z,19.40
2022-11-09T13:50:39.838Z,19.30
2022-11-09T13:53:57.366Z,19.40
2022-11-09T13:57:07.820Z,19.30
2022-11-09T14:00:23.664Z,19.30
2022-11-09T14:03:34.669Z,19.30
2022-11-09T14:06:41.511Z,19.30
2022-11-09T14:09:58.713Z,19.20
2022-11-09T14:13:20.204Z,19.20
2022-11-09T14:16:37.921Z,19.20
2022-11-09T14:19:56.682Z,19.10
2022-11-09T14:23:04.118Z,19.10
2022-11-09T14:26:11.779Z,19.00
2022-11-09T14:29:24.248Z,19.00
2022-11-09T14:32:34.516Z,18.90
2022-11-09T14:35:43.008Z,18.80
2022-11-09T14:38:50.366Z,18.70
2022-11-09T14:42:00.525Z,18.60
2022-11-09T14:45:10.590Z,18.50
2022-11-09T14:48:20.711Z,18.50
2022-11-09T14:51:35.022Z,18.40
2022-11-09T14:54:45.606Z,18.30
2022-11-09T14:57:56.078Z,18.20
2022-11-09T15:01:18.433Z,18.10
2022-11-09T15:04:27.458Z,18.00
2022-11-09T15:07:37.007Z,17.90
2022-11-09T15:10:50.194Z,17.90
2022-11-09T15:13:57.021Z,17.80
2022-11-09T15:17:13.414Z,17.70
2022-11-09T15:20:32.602Z,17.60
2022-11-09T15:23:42.181Z,17.50
2022-11-09T15:26:51.575Z,17.40
2022-11-09T15:30:01.100Z,17.30
2022-11-09T15:33:21.726Z,17.20
2022-11-09T15:36:34.019Z,17.20
2022-11-09T15:42:50.436Z,16.90
2022-11-09T15:45:58.644Z,16.80
2022-11-09T15:49:15.663Z,16.70
2022-11-09T15:52:22.326Z,16.70
2022-11-09T15:55:30.595Z,16.60
2022-11-09T15:58:37.839Z,16.50
2022-11-09T16:01:44.262Z,16.40
2022-11-09T16:04:50.469Z,16.30
2022-11-09T16:07:57.268Z,16.30
2022-11-09T16:11:08.071Z,16.20
2022-11-09T16:14:17.877Z,16.10
2022-11-09T16:17:24.252Z,16.00
2022-11-09T16:20:30.816Z,16.00
2022-11-09T16:23:37.185Z,15.90
2022-11-09T16:26:45.859Z,15.80
2022-11-09T16:29:52.694Z,15.70
2022-11-09T16:32:58.915Z,15.70
2022-11-09T16:36:09.755Z,15.60
2022-11-09T16:39:17.534Z,15.60
2022-11-09T16:42:25.286Z,15.50
2022-11-09T16:45:33.662Z,15.40
2022-11-09T16:48:40.800Z,15.40
2022-11-09T16:51:46.968Z,15.30
2022-11-09T16:54:53.796Z,15.30
2022-11-09T16:58:01.747Z,15.30
2022-11-09T17:01:11.912Z,15.20
2022-11-09T17:04:19.262Z,15.20
2022-11-09T17:07:25.292Z,15.20
2022-11-09T17:10:31.433Z,15.10
2022-11-09T17:13:39.414Z,15.10
2022-11-09T17:16:47.445Z,15.00
2022-11-09T17:19:53.519Z,15.00
2022-11-09T17:22:59.872Z,15.00
2022-11-09T17:26:08.118Z,15.00
2022-11-09T17:29:16.005Z,15.00
2022-11-09T17:32:26.306Z,14.90
2022-11-09T17:35:36.770Z,14.90
2022-11-09T17:38:42.918Z,14.90
2022-11-09T17:41:49.150Z,14.90
2022-11-09T17:44:56.748Z,14.80
2022-11-09T17:48:04.827Z,14.90
2022-11-09T17:51:13.032Z,14.90
2022-11-09T17:54:19.627Z,14.90
2022-11-09T17:57:26.063Z,14.90
2022-11-09T18:00:33.773Z,14.90
2022-11-09T18:03:40.768Z,14.90
2022-11-09T18:06:47.429Z,14.90
2022-11-09T18:09:53.904Z,15.00
2022-11-09T18:12:59.833Z,14.90
2022-11-09T18:19:23.565Z,14.80
2022-11-09T18:22:29.996Z,14.90
2022-11-09T18:31:54.266Z,14.70
2022-11-09T18:35:00.230Z,16.10
2022-11-09T18:38:10.095Z,14.80
2022-11-09T18:41:24.199Z,14.80
2022-11-09T18:44:30.639Z,14.70
2022-11-09T18:47:38.291Z,14.50
2022-11-09T18:50:44.562Z,14.50
2022-11-09T18:53:51.110Z,14.50
2022-11-09T18:56:57.183Z,14.50
2022-11-09T19:00:03.463Z,14.40
2022-11-09T19:03:16.871Z,14.40
2022-11-09T19:06:24.722Z,14.30
2022-11-09T19:09:35.174Z,14.40
2022-11-09T19:12:41.774Z,14.30
2022-11-09T19:15:47.917Z,14.30
2022-11-09T19:18:55.756Z,14.30
2022-11-09T19:22:02.191Z,14.30
2022-11-09T19:25:09.069Z,14.20
2022-11-09T19:28:15.387Z,14.10
2022-11-09T19:31:23.970Z,14.10
2022-11-09T19:34:31.982Z,14.00
2022-11-09T19:37:38.358Z,14.00
2022-11-09T19:40:44.531Z,14.00
2022-11-09T19:43:51.224Z,14.00
2022-11-09T19:46:58.443Z,14.00
2022-11-09T19:50:06.795Z,14.00
2022-11-09T19:53:12.992Z,13.90
2022-11-09T19:56:20.246Z,13.90
2022-11-09T19:59:26.433Z,13.90
2022-11-09T20:02:32.814Z,13.80
2022-11-09T20:05:40.133Z,13.80
2022-11-09T20:08:47.790Z,13.80
2022-11-09T20:12:10.978Z,13.80
2022-11-09T20:15:16.136Z,13.70
2022-11-09T20:18:21.060Z,13.70
2022-11-09T20:21:29.401Z,13.60
2022-11-09T20:24:35.840Z,13.60
2022-11-09T20:27:42.163Z,13.60
2022-11-09T20:30:48.630Z,13.60
2022-11-09T20:33:54.859Z,13.60
2022-11-09T20:37:02.404Z,13.60
2022-11-09T20:40:09.341Z,13.50
2022-11-09T20:43:15.983Z,13.50
2022-11-09T20:46:29.975Z,13.50
2022-11-09T20:49:39.613Z,13.50
2022-11-09T20:52:47.444Z,13.50
2022-11-09T20:55:54.425Z,13.40
2022-11-09T20:59:00.474Z,13.40
2022-11-09T21:02:06.756Z,13.40
2022-11-09T21:05:12.896Z,13.40
2022-11-09T21:08:21.858Z,13.40
2022-11-09T21:11:29.026Z,13.40
2022-11-09T21:14:35.236Z,13.40
2022-11-09T21:17:41.535Z,13.30
2022-11-09T21:20:47.731Z,13.40
2022-11-09T21:24:09.542Z,13.40
2022-11-09T21:27:23.741Z,13.30
2022-11-09T21:30:28.888Z,13.30
2022-11-09T21:33:34.243Z,13.30
2022-11-09T21:36:42.674Z,13.30
2022-11-09T21:39:50.482Z,13.30
2022-11-09T21:42:56.933Z,13.30
2022-11-09T21:46:03.021Z,13.30
2022-11-09T21:49:11.020Z,13.20
2022-11-09T21:52:16.925Z,13.20
2022-11-09T21:55:24.680Z,13.20
2022-11-09T21:58:30.907Z,13.20
2022-11-09T22:01:37.405Z,13.20
2022-11-09T22:04:43.648Z,13.20
2022-11-09T22:07:49.837Z,13.10
2022-11-09T22:11:05.657Z,13.10
2022-11-09T22:14:27.840Z,13.10
2022-11-09T22:17:32.587Z,13.10
2022-11-09T22:20:55.400Z,13.00
2022-11-09T22:24:01.399Z,13.00
2022-11-09T22:27:09.468Z,13.00
2022-11-09T22:30:15.868Z,13.00
2022-11-09T22:33:27.099Z,13.00
2022-11-09T22:36:34.368Z,12.90
2022-11-09T22:39:44.480Z,12.90
2022-11-09T22:42:58.740Z,12.90
2022-11-09T22:46:05.624Z,12.90
2022-11-09T22:49:11.865Z,12.90
2022-11-09T22:52:18.605Z,12.90
2022-11-09T22:55:24.806Z,12.90
2022-11-09T22:58:32.680Z,12.90
2022-11-09T23:01:39.102Z,12.90
2022-11-09T23:04:45.357Z,12.90
2022-11-09T23:07:51.719Z,12.90
2022-11-09T23:10:58.568Z,12.80
2022-11-09T23:14:06.280Z,12.90
2022-11-09T23:17:26.258Z,12.90
2022-11-09T23:20:35.729Z,12.90
2022-11-09T23:23:42.739Z,12.90
2022-11-09T23:26:49.049Z,12.90
2022-11-09T23:29:56.621Z,12.90
2022-11-09T23:33:03.581Z,12.90
2022-11-09T23:36:10.950Z,12.90
2022-11-09T23:39:17.340Z,12.90
2022-11-09T23:42:23.483Z,12.90
2022-11-09T23:45:31.803Z,12.90
2022-11-09T23:48:38.606Z,12.90
2022-11-09T23:51:44.818Z,12.90
2022-11-09T23:54:51.036Z,12.80
2022-11-09T23:57:57.220Z,12.90
